createdAt,value
2018-05-24T00:01:27.771Z,64.54
2018-05-24T00:03:53.731Z,65.00
2018-05-24T00:06:20.005Z,66.07
2018-05-24T00:08:45.899Z,65.54
2018-05-24T00:11:11.763Z,64.70
2018-05-24T00:13:37.715Z,64.86
2018-05-24T00:16:03.696Z,66.09
2018-05-24T00:18:29.569Z,66.21
2018-05-24T00:20:55.489Z,64.47
2018-05-24T00:23:21.355Z,64.65
2018-05-24T00:25:47.240Z,64.87
2018-05-24T00:28:13.259Z,64.83
2018-05-24T00:30:39.192Z,65.80
2018-05-24T00:33:05.093Z,66.48
2018-05-24T00:35:31.011Z,65.19
2018-05-24T00:37:56.885Z,64.53
2018-05-24T00:40:22.855Z,65.40
2018-05-24T00:42:48.856Z,64.82
2018-05-24T00:45:14.762Z,65.91
2018-05-24T00:47:40.670Z,66.50
2018-05-24T00:50:13.814Z,65.76
2018-05-24T00:52:39.779Z,65.57
2018-05-24T00:55:18.108Z,65.73
2018-05-24T00:57:43.995Z,65.96
2018-05-24T01:00:09.859Z,66.13
2018-05-24T01:02:35.766Z,65.00
2018-05-24T01:05:01.723Z,66.87
2018-05-24T01:07:27.647Z,66.58
2018-05-24T01:09:53.565Z,66.74
2018-05-24T01:12:19.432Z,66.96
2018-05-24T01:14:45.295Z,67.34
2018-05-24T01:17:11.306Z,67.50
2018-05-24T01:19:37.253Z,67.60
2018-05-24T01:22:03.131Z,66.66
2018-05-24T01:24:29.081Z,67.11
2018-05-24T01:26:54.963Z,66.83
2018-05-24T01:29:20.931Z,66.95
2018-05-24T01:31:46.924Z,67.39
2018-05-24T01:34:12.808Z,67.00
2018-05-24T01:36:51.037Z,66.07
2018-05-24T01:39:16.937Z,66.53
2018-05-24T01:41:43.414Z,66.20
2018-05-24T01:44:09.400Z,66.21
2018-05-24T01:46:35.280Z,65.83
2018-05-24T01:49:02.267Z,66.38
2018-05-24T01:51:28.212Z,65.73
2018-05-24T01:53:54.167Z,66.18
2018-05-24T01:56:20.095Z,66.07
2018-05-24T01:58:46.027Z,66.33
2018-05-24T02:01:11.928Z,66.69
2018-05-24T02:03:37.811Z,66.21
2018-05-24T02:06:03.840Z,67.29
2018-05-24T02:08:29.769Z,67.21
2018-05-24T02:10:55.650Z,66.48
2018-05-24T02:13:21.593Z,67.12
2018-05-24T02:15:47.468Z,67.41
2018-05-24T02:18:13.432Z,68.63
2018-05-24T02:20:39.415Z,67.74
2018-05-24T02:23:05.321Z,68.01
2018-05-24T02:25:31.195Z,68.66
2018-05-24T02:27:57.089Z,68.29
2018-05-24T02:30:23.035Z,67.82
2018-05-24T02:32:48.981Z,68.54
2018-05-24T02:35:14.929Z,68.16
2018-05-24T02:37:40.833Z,69.09
2018-05-24T02:40:06.765Z,70.11
2018-05-24T02:42:32.786Z,69.23
2018-05-24T02:44:58.740Z,69.03
2018-05-24T02:47:24.611Z,69.33
2018-05-24T02:49:50.533Z,70.20
2018-05-24T02:52:16.399Z,70.35
2018-05-24T02:54:42.357Z,69.93
2018-05-24T02:57:08.339Z,69.11
2018-05-24T02:59:34.217Z,70.90
2018-05-24T03:02:01.279Z,70.04
2018-05-24T03:04:27.204Z,71.55
2018-05-24T03:06:53.186Z,70.82
2018-05-24T03:09:23.670Z,72.05
2018-05-24T03:11:49.679Z,72.45
2018-05-24T03:14:15.638Z,70.91
2018-05-24T03:16:41.564Z,71.97
2018-05-24T03:19:07.682Z,71.69
2018-05-24T03:21:33.548Z,72.12
2018-05-24T03:24:00.483Z,70.25
2018-05-24T03:26:26.415Z,71.38
2018-05-24T03:28:52.410Z,71.10
2018-05-24T03:31:18.354Z,71.53
2018-05-24T03:33:44.280Z,70.40
2018-05-24T03:36:12.214Z,70.91
2018-05-24T03:38:38.096Z,70.50
2018-05-24T03:41:04.019Z,69.84
2018-05-24T03:43:29.895Z,71.41
2018-05-24T03:45:55.775Z,70.76
2018-05-24T03:48:21.698Z,70.65
2018-05-24T03:50:47.560Z,70.07
2018-05-24T03:53:13.432Z,70.32
2018-05-24T03:55:39.451Z,69.02
2018-05-24T03:58:05.331Z,69.54
2018-05-24T04:00:43.587Z,69.42
2018-05-24T04:03:22.709Z,68.08
2018-05-24T04:05:48.650Z,68.70
2018-05-24T04:08:14.581Z,68.51
2018-05-24T04:10:40.466Z,68.08
2018-05-24T04:13:06.493Z,68.73
2018-05-24T04:15:32.318Z,68.83
2018-05-24T04:17:58.214Z,68.61
2018-05-24T04:20:24.123Z,68.52
2018-05-24T04:22:50.985Z,68.66
2018-05-24T04:25:16.873Z,68.36
2018-05-24T04:27:42.879Z,68.50
2018-05-24T04:30:08.760Z,68.97
2018-05-24T04:32:34.705Z,67.65
2018-05-24T04:35:00.652Z,67.18
2018-05-24T04:37:31.971Z,67.15
2018-05-24T04:39:57.847Z,67.42
2018-05-24T04:42:23.771Z,67.68
2018-05-24T04:44:49.667Z,67.31
2018-05-24T04:47:15.557Z,67.05
2018-05-24T04:49:41.507Z,67.08
2018-05-24T04:52:07.419Z,67.01
2018-05-24T04:54:33.332Z,66.52
2018-05-24T04:56:59.335Z,66.15
2018-05-24T04:59:25.242Z,66.76
2018-05-24T05:01:51.177Z,66.60
2018-05-24T05:04:17.134Z,66.73
2018-05-24T05:06:43.035Z,66.85
2018-05-24T05:09:08.924Z,66.53
2018-05-24T05:11:34.859Z,66.18
2018-05-24T05:14:00.764Z,66.35
2018-05-24T05:16:26.636Z,65.79
2018-05-24T05:18:52.572Z,65.79
2018-05-24T05:21:18.493Z,65.37
2018-05-24T05:23:44.463Z,65.95
2018-05-24T05:26:10.389Z,66.07
2018-05-24T05:28:36.268Z,64.63
2018-05-24T05:31:02.149Z,64.68
2018-05-24T05:33:28.183Z,64.32
2018-05-24T05:35:54.102Z,63.88
2018-05-24T05:38:20.078Z,63.98
2018-05-24T05:40:45.930Z,63.03
2018-05-24T05:43:11.812Z,63.52
2018-05-24T05:45:37.691Z,63.76
2018-05-24T05:48:03.607Z,63.55
2018-05-24T05:50:29.491Z,62.47
2018-05-24T05:52:55.397Z,62.63
2018-05-24T05:55:21.363Z,62.32
2018-05-24T05:57:47.373Z,62.16
2018-05-24T06:00:13.295Z,61.89
2018-05-24T06:02:39.272Z,61.99
2018-05-24T06:05:05.177Z,60.86
2018-05-24T06:07:31.055Z,60.42
2018-05-24T06:09:57.072Z,61.02
2018-05-24T06:12:22.949Z,60.64
2018-05-24T06:14:48.840Z,61.36
2018-05-24T06:17:14.763Z,60.76
2018-05-24T06:19:40.664Z,59.86
2018-05-24T06:22:06.572Z,61.60
2018-05-24T06:24:32.496Z,60.28
2018-05-24T06:27:03.458Z,61.07
2018-05-24T06:29:29.360Z,60.14
2018-05-24T06:31:55.280Z,59.73
2018-05-24T06:34:21.223Z,59.64
2018-05-24T06:36:47.108Z,59.08
2018-05-24T06:39:13.020Z,59.29
2018-05-24T06:41:38.908Z,57.10
2018-05-24T06:44:04.820Z,57.65
2018-05-24T06:46:30.787Z,57.57
2018-05-24T06:48:56.675Z,56.08
2018-05-24T06:51:22.568Z,57.05
2018-05-24T06:53:48.547Z,57.56
2018-05-24T06:56:14.433Z,56.55
2018-05-24T06:58:40.324Z,57.97
2018-05-24T07:01:06.280Z,58.55
2018-05-24T07:03:32.168Z,57.81
2018-05-24T07:05:58.103Z,57.07
2018-05-24T07:08:23.978Z,56.63
2018-05-24T07:10:50.008Z,57.27
2018-05-24T07:13:15.969Z,55.75
2018-05-24T07:15:41.896Z,55.98
2018-05-24T07:18:07.788Z,54.20
2018-05-24T07:20:33.748Z,55.28
2018-05-24T07:22:59.718Z,55.31
2018-05-24T07:25:25.645Z,53.42
2018-05-24T07:27:56.708Z,54.06
2018-05-24T07:30:22.689Z,52.55
2018-05-24T07:32:50.587Z,52.67
2018-05-24T07:35:16.911Z,54.08
2018-05-24T07:37:42.931Z,50.67
2018-05-24T07:40:12.697Z,49.56
2018-05-24T07:42:38.670Z,49.46
2018-05-24T07:45:04.684Z,50.95
2018-05-24T07:47:30.509Z,48.53
2018-05-24T07:49:56.435Z,48.43
2018-05-24T07:52:22.355Z,49.30
2018-05-24T07:54:48.301Z,49.10
2018-05-24T07:57:14.120Z,48.79
2018-05-24T07:59:40.051Z,49.34
2018-05-24T08:02:05.947Z,49.77
2018-05-24T08:04:31.844Z,48.96
2018-05-24T08:06:57.764Z,48.93
2018-05-24T08:09:23.725Z,49.25
2018-05-24T08:11:49.595Z,49.94
2018-05-24T08:14:15.582Z,49.76
2018-05-24T08:16:41.496Z,49.78
2018-05-24T08:19:07.668Z,49.58
2018-05-24T08:21:34.104Z,49.96
2018-05-24T08:24:01.007Z,49.71
2018-05-24T08:26:27.382Z,49.92
2018-05-24T08:28:53.377Z,51.36
2018-05-24T08:31:19.268Z,48.25
2018-05-24T08:33:45.138Z,48.94
2018-05-24T08:36:11.103Z,47.91
2018-05-24T08:38:36.982Z,45.95
2018-05-24T08:41:02.913Z,48.55
2018-05-24T08:43:28.983Z,48.72
2018-05-24T08:45:55.065Z,47.66
2018-05-24T08:48:20.950Z,45.77
2018-05-24T08:50:46.893Z,46.67
2018-05-24T08:53:12.847Z,48.45
2018-05-24T08:55:38.727Z,47.65
2018-05-24T08:58:04.684Z,45.18
2018-05-24T09:00:30.595Z,44.87
2018-05-24T09:02:56.483Z,44.87
2018-05-24T09:05:22.699Z,46.04
2018-05-24T09:07:48.597Z,41.49
2018-05-24T09:10:14.485Z,42.07
2018-05-24T09:12:40.430Z,41.26
2018-05-24T09:15:06.360Z,42.42
2018-05-24T09:17:32.290Z,42.02
2018-05-24T09:20:06.657Z,41.05
2018-05-24T09:22:32.491Z,38.76
2018-05-24T09:24:58.467Z,40.20
2018-05-24T09:27:24.556Z,37.86
2018-05-24T09:29:50.432Z,39.14
2018-05-24T09:32:16.323Z,39.37
2018-05-24T09:34:42.276Z,38.19
2018-05-24T09:37:11.396Z,36.31
2018-05-24T09:39:37.395Z,38.24
2018-05-24T09:42:03.418Z,37.31
2018-05-24T09:44:29.295Z,36.23
2018-05-24T09:46:55.184Z,34.66
2018-05-24T09:49:21.591Z,36.27
2018-05-24T09:51:47.540Z,35.88
2018-05-24T09:54:13.415Z,37.14
2018-05-24T09:56:39.347Z,33.28
2018-05-24T09:59:05.332Z,33.26
2018-05-24T10:01:31.215Z,32.54
2018-05-24T10:03:57.164Z,33.88
2018-05-24T10:06:23.078Z,33.22
2018-05-24T10:08:48.951Z,34.13
2018-05-24T10:11:14.859Z,33.69
2018-05-24T10:13:40.742Z,32.77
2018-05-24T10:16:06.683Z,32.46
2018-05-24T10:18:32.633Z,32.57
2018-05-24T10:20:59.561Z,31.84
2018-05-24T10:23:25.455Z,31.93
2018-05-24T10:25:51.415Z,31.28
2018-05-24T10:28:17.326Z,30.90
2018-05-24T10:30:43.394Z,32.12
2018-05-24T10:33:09.323Z,32.95
2018-05-24T10:35:35.258Z,33.83
2018-05-24T10:38:03.135Z,31.77
2018-05-24T10:40:33.929Z,32.06
2018-05-24T10:43:01.057Z,30.47
2018-05-24T10:45:27.029Z,31.62
2018-05-24T10:47:52.992Z,29.19
2018-05-24T10:50:18.877Z,29.42
2018-05-24T10:52:44.784Z,31.49
2018-05-24T10:55:10.704Z,31.46
2018-05-24T10:57:36.672Z,29.60
2018-05-24T11:00:03.688Z,31.47
2018-05-24T11:02:29.664Z,29.79
2018-05-24T11:04:55.568Z,29.95
2018-05-24T11:07:21.565Z,31.55
2018-05-24T11:09:47.495Z,30.14
2018-05-24T11:12:13.378Z,28.38
2018-05-24T11:14:39.335Z,26.83
2018-05-24T11:17:05.265Z,27.22
2018-05-24T11:19:31.135Z,26.47
2018-05-24T11:21:57.021Z,28.04
2018-05-24T11:24:23.042Z,27.62
2018-05-24T11:26:48.961Z,27.68
2018-05-24T11:29:14.863Z,26.39
2018-05-24T11:31:40.816Z,26.77
2018-05-24T11:34:06.686Z,27.47
2018-05-24T11:36:32.606Z,25.60
2018-05-24T11:39:01.257Z,26.69
2018-05-24T11:41:27.478Z,25.29
2018-05-24T11:43:53.465Z,25.08
2018-05-24T11:46:19.393Z,25.50
2018-05-24T11:48:45.267Z,24.81
2018-05-24T11:51:14.260Z,26.01
2018-05-24T11:53:40.920Z,27.23
2018-05-24T11:56:06.849Z,24.61
2018-05-24T11:58:32.758Z,24.12
2018-05-24T12:01:03.520Z,23.85
2018-05-24T12:03:29.396Z,24.70
2018-05-24T12:05:55.945Z,26.24
2018-05-24T12:08:21.884Z,25.99
2018-05-24T12:10:47.770Z,24.97
2018-05-24T12:13:13.663Z,25.32
2018-05-24T12:15:39.600Z,26.04
2018-05-24T12:18:06.524Z,27.51
2018-05-24T12:20:32.404Z,28.05
2018-05-24T12:22:58.337Z,27.53
2018-05-24T12:25:24.244Z,29.45
2018-05-24T12:27:50.117Z,29.61
2018-05-24T12:30:16.032Z,30.08
2018-05-24T12:32:42.004Z,32.09
2018-05-24T12:35:07.891Z,30.25
2018-05-24T12:37:33.825Z,28.79
2018-05-24T12:39:59.792Z,31.07
2018-05-24T12:42:25.677Z,30.46
2018-05-24T12:44:51.608Z,30.78
2018-05-24T12:47:17.516Z,30.54
2018-05-24T12:49:43.426Z,30.84
2018-05-24T12:52:09.368Z,31.33
2018-05-24T12:54:35.280Z,31.24
2018-05-24T12:57:01.172Z,30.79
2018-05-24T12:59:27.102Z,29.59
2018-05-24T13:01:53.004Z,30.08
2018-05-24T13:04:18.993Z,30.33
2018-05-24T13:06:44.980Z,30.79
2018-05-24T13:09:10.932Z,30.79
2018-05-24T13:11:36.866Z,30.12
2018-05-24T13:14:02.791Z,30.64
2018-05-24T13:16:28.671Z,29.69
2018-05-24T13:18:54.612Z,29.62
2018-05-24T13:21:22.659Z,29.18
2018-05-24T13:23:53.300Z,29.09
2018-05-24T13:26:35.437Z,30.05
2018-05-24T13:29:05.507Z,31.56
2018-05-24T13:31:31.545Z,29.46
2018-05-24T13:34:00.932Z,29.18
2018-05-24T13:36:27.681Z,30.06
2018-05-24T13:38:57.144Z,29.96
2018-05-24T13:41:26.769Z,29.21
2018-05-24T13:43:52.924Z,28.76
2018-05-24T13:46:18.871Z,31.03
2018-05-24T13:48:44.815Z,30.37
2018-05-24T13:51:10.791Z,30.70
2018-05-24T13:53:36.753Z,31.56
2018-05-24T13:56:05.709Z,30.87
2018-05-24T13:58:31.826Z,31.05
2018-05-24T14:01:03.472Z,30.13
2018-05-24T14:03:30.099Z,30.23
2018-05-24T14:05:56.994Z,30.72
2018-05-24T14:08:23.010Z,30.14
2018-05-24T14:10:55.436Z,30.16
2018-05-24T14:13:21.411Z,29.92
2018-05-24T14:15:47.636Z,29.96
2018-05-24T14:18:13.913Z,31.35
2018-05-24T14:20:40.163Z,31.75
2018-05-24T14:23:06.249Z,31.57
2018-05-24T14:25:32.227Z,30.30
2018-05-24T14:30:36.805Z,29.54
2018-05-24T14:33:06.392Z,29.75
2018-05-24T14:35:33.224Z,30.90
2018-05-24T14:38:01.875Z,29.09
2018-05-24T14:40:36.404Z,29.90
2018-05-24T14:43:06.428Z,30.19
2018-05-24T14:48:03.990Z,29.21
2018-05-24T14:50:34.212Z,30.59
2018-05-24T14:53:03.258Z,30.98
2018-05-24T14:55:32.228Z,30.34
2018-05-24T14:58:00.990Z,30.76
2018-05-24T15:00:28.956Z,31.31
2018-05-24T15:02:54.960Z,29.83
2018-05-24T15:05:21.418Z,27.77
2018-05-24T15:07:47.353Z,27.03
2018-05-24T15:10:14.589Z,27.71
2018-05-24T15:12:40.524Z,26.95
2018-05-24T15:15:06.527Z,27.20
2018-05-24T15:17:33.779Z,27.48
2018-05-24T15:19:59.662Z,27.90
2018-05-24T15:22:28.756Z,26.14
2018-05-24T15:24:55.008Z,27.00
2018-05-24T15:27:21.038Z,24.60
2018-05-24T15:29:46.949Z,26.67
2018-05-24T15:32:12.949Z,27.26
2018-05-24T15:34:38.892Z,26.28
2018-05-24T15:37:04.786Z,25.04
2018-05-24T15:39:30.751Z,24.28
2018-05-24T15:41:56.634Z,25.67
2018-05-24T15:44:22.724Z,26.05
2018-05-24T15:46:48.659Z,25.53
2018-05-24T15:49:14.587Z,25.38
2018-05-24T15:51:40.476Z,27.26
2018-05-24T15:54:06.436Z,27.45
2018-05-24T15:56:32.411Z,27.66
2018-05-24T15:58:58.380Z,29.53
2018-05-24T16:01:28.783Z,30.07
2018-05-24T16:03:54.709Z,32.10
2018-05-24T16:06:20.627Z,31.80
2018-05-24T16:08:46.644Z,32.96
2018-05-24T16:11:12.555Z,32.31
2018-05-24T16:13:38.609Z,33.29
2018-05-24T16:16:04.560Z,33.31
2018-05-24T16:18:30.490Z,32.25
2018-05-24T16:20:56.482Z,33.50
2018-05-24T16:23:22.644Z,31.80
2018-05-24T16:25:48.544Z,33.15
2018-05-24T16:28:14.490Z,33.01
2018-05-24T16:30:40.452Z,33.02
2018-05-24T16:33:06.412Z,32.36
2018-05-24T16:35:32.299Z,32.96
2018-05-24T16:37:59.161Z,32.75
2018-05-24T16:40:25.067Z,33.44
2018-05-24T16:42:50.976Z,32.70
2018-05-24T16:45:17.065Z,32.93
2018-05-24T16:47:42.988Z,33.00
2018-05-24T16:50:08.870Z,33.53
2018-05-24T16:52:35.148Z,32.86
2018-05-24T16:55:03.184Z,32.95
2018-05-24T16:57:29.192Z,33.39
2018-05-24T16:59:55.171Z,33.49
2018-05-24T17:02:21.107Z,33.65
2018-05-24T17:04:47.064Z,34.62
2018-05-24T17:07:13.320Z,34.13
2018-05-24T17:09:39.324Z,33.44
2018-05-24T17:12:05.205Z,33.34
2018-05-24T17:14:33.112Z,33.78
2018-05-24T17:17:00.574Z,33.39
2018-05-24T17:19:28.923Z,33.70
2018-05-24T17:21:55.716Z,33.83
2018-05-24T17:24:21.666Z,34.08
2018-05-24T17:26:47.548Z,34.75
2018-05-24T17:29:13.499Z,34.02
2018-05-24T17:31:41.008Z,33.94
2018-05-24T17:34:07.709Z,34.62
2018-05-24T17:36:35.887Z,34.80
2018-05-24T17:39:01.913Z,34.27
2018-05-24T17:41:27.844Z,34.20
2018-05-24T17:43:53.824Z,34.65
2018-05-24T17:46:19.799Z,34.91
2018-05-24T17:48:45.669Z,35.13
2018-05-24T17:51:11.604Z,34.65
2018-05-24T17:53:37.496Z,35.26
2018-05-24T17:56:06.281Z,35.68
2018-05-24T17:58:41.237Z,36.04
2018-05-24T18:01:08.770Z,35.20
2018-05-24T18:03:35.015Z,35.91
2018-05-24T18:06:01.096Z,35.88
2018-05-24T18:08:27.054Z,36.42
2018-05-24T18:10:53.008Z,35.66
2018-05-24T18:13:18.968Z,37.29
2018-05-24T18:15:44.848Z,35.98
2018-05-24T18:18:10.760Z,37.39
2018-05-24T18:20:36.855Z,37.17
2018-05-24T18:23:02.920Z,37.90
2018-05-24T18:25:33.808Z,38.51
2018-05-24T18:28:00.233Z,37.97
2018-05-24T18:30:27.583Z,38.22
2018-05-24T18:32:55.337Z,37.57
2018-05-24T18:35:21.429Z,38.51
2018-05-24T18:37:47.385Z,38.73
2018-05-24T18:40:13.303Z,38.93
2018-05-24T18:42:39.562Z,38.93
2018-05-24T18:45:05.514Z,38.43
2018-05-24T18:47:33.548Z,39.54
2018-05-24T18:49:59.475Z,39.74
2018-05-24T18:52:33.445Z,40.37
2018-05-24T18:55:00.713Z,40.76
2018-05-24T18:57:26.700Z,41.27
2018-05-24T18:59:52.882Z,41.05
2018-05-24T19:02:18.886Z,41.19
2018-05-24T19:04:44.940Z,41.65
2018-05-24T19:07:11.709Z,42.95
2018-05-24T19:09:38.325Z,41.64
2018-05-24T19:12:04.347Z,41.84
2018-05-24T19:14:30.247Z,43.65
2018-05-24T19:16:56.189Z,42.85
2018-05-24T19:19:22.209Z,42.50
2018-05-24T19:21:48.171Z,43.94
2018-05-24T19:24:14.472Z,43.70
2018-05-24T19:26:40.424Z,43.55
2018-05-24T19:29:07.297Z,44.01
2018-05-24T19:31:33.251Z,45.43
2018-05-24T19:33:59.123Z,44.78
2018-05-24T19:36:25.048Z,45.64
2018-05-24T19:38:53.082Z,46.07
2018-05-24T19:41:19.224Z,46.26
2018-05-24T19:43:45.368Z,46.82
2018-05-24T19:46:11.291Z,48.64
2018-05-24T19:48:37.168Z,47.05
2018-05-24T19:51:03.136Z,47.94
2018-05-24T19:53:29.066Z,47.67
2018-05-24T19:55:55.000Z,47.60
2018-05-24T19:58:21.032Z,49.69
2018-05-24T20:00:47.088Z,48.42
2018-05-24T20:03:13.054Z,48.54
2018-05-24T20:05:39.009Z,47.93
2018-05-24T20:08:04.953Z,47.94
2018-05-24T20:10:30.994Z,47.70
2018-05-24T20:12:56.971Z,49.43
2018-05-24T20:15:23.032Z,48.72
2018-05-24T20:17:49.562Z,51.34
2018-05-24T20:20:15.656Z,50.91
2018-05-24T20:22:42.395Z,52.74
2018-05-24T20:25:10.544Z,49.81
2018-05-24T20:27:36.504Z,50.19
2018-05-24T20:30:02.512Z,50.30
2018-05-24T20:32:28.826Z,51.76
2018-05-24T20:34:55.399Z,52.07
2018-05-24T20:37:21.784Z,51.37
2018-05-24T20:39:55.198Z,51.73
2018-05-24T20:42:21.355Z,51.74
2018-05-24T20:46:18.060Z,52.57
2018-05-24T20:48:46.243Z,52.84
2018-05-24T20:51:12.207Z,52.89
2018-05-24T20:53:39.156Z,53.57
2018-05-24T20:56:05.115Z,53.88
2018-05-24T20:58:31.071Z,54.72
2018-05-24T21:00:57.000Z,57.01
2018-05-24T21:03:23.900Z,54.30
2018-05-24T21:05:49.884Z,55.02
2018-05-24T21:08:34.955Z,54.35
2018-05-24T21:11:00.876Z,54.70
2018-05-24T21:13:26.827Z,57.21
2018-05-24T21:15:52.820Z,56.82
2018-05-24T21:18:18.775Z,58.06
2018-05-24T21:20:44.845Z,57.24
2018-05-24T21:23:10.827Z,57.10
2018-05-24T21:25:36.746Z,57.94
2018-05-24T21:28:02.676Z,56.40
2018-05-24T21:30:32.652Z,56.01
2018-05-24T21:32:58.609Z,56.95
2018-05-24T21:35:24.573Z,57.01
2018-05-24T21:37:50.642Z,58.81
2018-05-24T21:40:16.653Z,57.89
2018-05-24T21:42:42.580Z,57.96
2018-05-24T21:45:08.579Z,60.72
2018-05-24T21:47:34.521Z,57.66
2018-05-24T21:50:00.436Z,58.60
2018-05-24T21:52:26.415Z,59.01
2018-05-24T21:54:52.428Z,58.23
2018-05-24T21:57:19.425Z,57.83
2018-05-24T21:59:45.412Z,58.64
2018-05-24T22:02:11.341Z,60.53
2018-05-24T22:04:37.247Z,58.91
2018-05-24T22:07:03.209Z,60.01
2018-05-24T22:09:29.123Z,59.88
2018-05-24T22:11:55.066Z,60.42
2018-05-24T22:14:21.055Z,60.67
2018-05-24T22:16:46.975Z,61.85
2018-05-24T22:19:12.901Z,61.45
2018-05-24T22:21:38.957Z,61.65
2018-05-24T22:24:04.980Z,63.00
2018-05-24T22:26:30.898Z,61.16
2018-05-24T22:28:56.896Z,61.77
2018-05-24T22:31:22.910Z,62.31
2018-05-24T22:33:48.852Z,62.04
2018-05-24T22:36:14.826Z,61.49
2018-05-24T22:38:40.788Z,61.62
2018-05-24T22:41:06.712Z,63.06
2018-05-24T22:43:32.731Z,64.01
2018-05-24T22:45:58.640Z,63.68
2018-05-24T22:48:24.641Z,64.21
2018-05-24T22:50:50.656Z,63.79
2018-05-24T22:53:16.708Z,63.58
2018-05-24T22:55:42.645Z,63.00
2018-05-24T22:58:08.609Z,63.11
2018-05-24T23:00:34.557Z,63.61
2018-05-24T23:03:00.517Z,64.15
2018-05-24T23:05:26.470Z,63.71
2018-05-24T23:07:52.445Z,64.51
2018-05-24T23:10:21.879Z,64.11
2018-05-24T23:12:47.829Z,64.02
2018-05-24T23:15:13.746Z,66.24
2018-05-24T23:17:39.655Z,65.29
2018-05-24T23:20:05.632Z,66.30
2018-05-24T23:22:37.534Z,66.43
2018-05-24T23:25:03.479Z,66.85
2018-05-24T23:27:29.480Z,66.81
2018-05-24T23:29:55.411Z,67.40
2018-05-24T23:32:21.366Z,67.43
2018-05-24T23:34:47.322Z,67.88
2018-05-24T23:37:13.236Z,66.26
2018-05-24T23:39:40.260Z,67.25
2018-05-24T23:42:06.221Z,68.16
2018-05-24T23:44:32.336Z,68.05
2018-05-24T23:46:58.309Z,67.65
2018-05-24T23:49:24.345Z,67.79
2018-05-24T23:51:50.359Z,68.28
2018-05-24T23:54:16.276Z,67.69
2018-05-24T23:56:42.235Z,66.95
2018-05-24T23:59:08.158Z,67.83
